createdAt,value
2023-05-22T00:00:42.811Z,55.43
2023-05-22T00:03:28.989Z,55.46
2023-05-22T00:06:01.567Z,55.45
2023-05-22T00:08:33.764Z,55.38
2023-05-22T00:11:06.180Z,55.47
2023-05-22T00:13:38.745Z,55.79
2023-05-22T00:16:11.342Z,55.54
2023-05-22T00:18:44.823Z,55.85
2023-05-22T00:21:18.668Z,55.83
2023-05-22T00:23:51.032Z,55.93
2023-05-22T00:26:24.074Z,55.66
2023-05-22T00:28:56.254Z,56.29
2023-05-22T00:31:29.026Z,56.23
2023-05-22T00:34:01.241Z,56.43
2023-05-22T00:36:33.602Z,56.40
2023-05-22T00:39:06.369Z,56.51
2023-05-22T00:41:39.053Z,56.38
2023-05-22T00:44:11.875Z,56.74
2023-05-22T00:46:44.415Z,56.62
2023-05-22T00:49:16.873Z,56.85
2023-05-22T00:51:49.577Z,56.94
2023-05-22T00:54:22.293Z,56.90
2023-05-22T00:56:54.847Z,57.12
2023-05-22T00:59:27.861Z,57.26
2023-05-22T01:02:01.696Z,57.24
2023-05-22T01:04:35.290Z,57.41
2023-05-22T01:07:07.894Z,57.59
2023-05-22T01:09:40.432Z,57.57
2023-05-22T01:12:25.646Z,57.48
2023-05-22T01:15:00.931Z,57.64
2023-05-22T01:17:41.122Z,57.78
2023-05-22T01:20:22.324Z,57.84
2023-05-22T01:23:17.420Z,57.97
2023-05-22T01:26:15.149Z,58.33
2023-05-22T01:29:04.949Z,58.13
2023-05-22T01:31:40.941Z,58.01
2023-05-22T01:34:14.106Z,58.49
2023-05-22T01:36:49.918Z,58.39
2023-05-22T01:39:23.929Z,58.82
2023-05-22T01:41:58.646Z,58.90
2023-05-22T01:44:30.996Z,58.79
2023-05-22T01:47:05.421Z,58.69
2023-05-22T01:49:39.030Z,58.74
2023-05-22T01:52:18.710Z,58.14
2023-05-22T01:54:58.431Z,58.99
2023-05-22T01:57:35.246Z,59.16
2023-05-22T02:00:14.004Z,58.93
2023-05-22T02:02:54.732Z,59.03
2023-05-22T02:05:30.253Z,58.76
2023-05-22T02:08:04.808Z,59.14
2023-05-22T02:10:39.183Z,59.33
2023-05-22T02:13:15.566Z,59.30
2023-05-22T02:15:49.436Z,59.27
2023-05-22T02:18:22.394Z,59.24
2023-05-22T02:20:55.197Z,59.42
2023-05-22T02:23:29.856Z,59.55
2023-05-22T02:26:02.657Z,59.57
2023-05-22T02:28:35.351Z,59.75
2023-05-22T02:31:07.998Z,59.73
2023-05-22T02:33:40.990Z,59.77
2023-05-22T02:36:14.640Z,59.67
2023-05-22T02:38:46.646Z,59.92
2023-05-22T02:41:19.258Z,59.64
2023-05-22T02:43:51.442Z,59.94
2023-05-22T02:46:23.928Z,59.58
2023-05-22T02:48:56.383Z,59.56
2023-05-22T02:51:29.110Z,59.74
2023-05-22T02:54:01.429Z,59.50
2023-05-22T02:56:33.792Z,59.29
2023-05-22T02:59:06.595Z,59.88
2023-05-22T03:01:39.847Z,60.01
2023-05-22T03:04:14.159Z,60.23
2023-05-22T03:06:47.698Z,60.03
2023-05-22T03:09:20.361Z,60.07
2023-05-22T03:11:52.745Z,60.06
2023-05-22T03:14:24.938Z,60.31
2023-05-22T03:16:59.051Z,59.98
2023-05-22T03:19:31.740Z,60.00
2023-05-22T03:22:04.364Z,59.92
2023-05-22T03:24:37.040Z,59.90
2023-05-22T03:27:09.563Z,60.02
2023-05-22T03:29:44.815Z,60.30
2023-05-22T03:32:17.382Z,60.26
2023-05-22T03:34:49.754Z,60.11
2023-05-22T03:37:22.236Z,60.35
2023-05-22T03:39:54.487Z,60.45
2023-05-22T03:42:31.209Z,60.14
2023-05-22T03:45:04.154Z,60.18
2023-05-22T03:47:36.899Z,60.10
2023-05-22T03:50:10.345Z,60.19
2023-05-22T03:52:42.899Z,60.03
2023-05-22T03:55:16.364Z,60.32
2023-05-22T03:57:48.871Z,60.45
2023-05-22T04:00:24.251Z,60.54
2023-05-22T04:02:58.865Z,60.97
2023-05-22T04:05:33.462Z,60.75
2023-05-22T04:08:06.098Z,61.12
2023-05-22T04:10:39.171Z,60.75
2023-05-22T04:13:11.673Z,60.86
2023-05-22T04:15:47.844Z,60.58
2023-05-22T04:18:19.009Z,60.74
2023-05-22T04:20:52.266Z,60.63
2023-05-22T04:23:24.444Z,60.99
2023-05-22T04:25:56.865Z,61.05
2023-05-22T04:28:30.368Z,61.30
2023-05-22T04:31:06.673Z,60.89
2023-05-22T04:33:40.322Z,61.48
2023-05-22T04:36:13.347Z,62.09
2023-05-22T04:38:47.743Z,61.71
2023-05-22T04:41:22.706Z,61.80
2023-05-22T04:43:56.862Z,61.66
2023-05-22T04:46:29.836Z,61.96
2023-05-22T04:49:03.409Z,61.59
2023-05-22T04:51:35.645Z,61.97
2023-05-22T04:54:08.158Z,61.80
2023-05-22T04:56:40.829Z,61.49
2023-05-22T04:59:16.524Z,61.13
2023-05-22T05:01:50.499Z,61.00
2023-05-22T05:04:23.208Z,60.20
2023-05-22T05:06:57.615Z,60.24
2023-05-22T05:09:29.997Z,60.25
2023-05-22T05:12:04.193Z,60.25
2023-05-22T05:14:36.437Z,59.87
2023-05-22T05:17:08.921Z,60.33
2023-05-22T05:19:41.438Z,60.15
2023-05-22T05:22:15.077Z,60.02
2023-05-22T05:24:48.741Z,59.88
2023-05-22T05:27:21.622Z,60.42
2023-05-22T05:29:54.439Z,60.47
2023-05-22T05:32:34.658Z,60.62
2023-05-22T05:35:36.834Z,60.29
2023-05-22T05:38:14.422Z,60.46
2023-05-22T05:40:49.511Z,60.83
2023-05-22T05:43:23.376Z,61.18
2023-05-22T05:45:56.248Z,60.88
2023-05-22T05:48:28.819Z,60.64
2023-05-22T05:51:01.809Z,60.42
2023-05-22T05:53:39.253Z,60.21
2023-05-22T05:56:12.394Z,59.74
2023-05-22T05:58:45.288Z,59.48
2023-05-22T06:01:36.993Z,59.72
2023-05-22T06:04:09.908Z,59.25
2023-05-22T06:06:44.384Z,59.12
2023-05-22T06:09:31.028Z,58.84
2023-05-22T06:12:17.165Z,58.75
2023-05-22T06:14:50.354Z,58.61
2023-05-22T06:17:23.160Z,58.93
2023-05-22T06:19:55.942Z,58.72
2023-05-22T06:22:29.333Z,58.56
2023-05-22T06:25:05.420Z,58.12
2023-05-22T06:27:38.818Z,57.89
2023-05-22T06:30:14.791Z,57.69
2023-05-22T06:32:47.411Z,57.54
2023-05-22T06:35:22.681Z,57.63
2023-05-22T06:37:56.120Z,57.58
2023-05-22T06:40:29.121Z,57.71
2023-05-22T06:43:06.844Z,57.67
2023-05-22T06:45:45.454Z,57.77
2023-05-22T06:48:37.678Z,57.96
2023-05-22T06:51:24.437Z,56.99
2023-05-22T06:53:58.383Z,56.71
2023-05-22T06:56:33.471Z,56.64
2023-05-22T06:59:12.926Z,56.46
2023-05-22T07:02:08.923Z,55.89
2023-05-22T07:04:55.319Z,55.60
2023-05-22T07:07:42.353Z,53.66
2023-05-22T07:10:15.262Z,53.77
2023-05-22T07:12:47.428Z,53.10
2023-05-22T07:15:20.112Z,54.74
2023-05-22T07:17:56.859Z,54.61
2023-05-22T07:20:29.235Z,52.94
2023-05-22T07:23:24.432Z,53.75
2023-05-22T07:25:58.497Z,53.39
2023-05-22T07:28:34.240Z,52.74
2023-05-22T07:31:11.441Z,53.63
2023-05-22T07:33:43.705Z,52.45
2023-05-22T07:36:18.162Z,50.15
2023-05-22T07:38:50.733Z,48.57
2023-05-22T07:41:24.332Z,48.84
2023-05-22T07:43:56.442Z,49.94
2023-05-22T07:46:32.762Z,47.58
2023-05-22T07:49:12.425Z,48.66
2023-05-22T07:51:46.417Z,49.17
2023-05-22T07:54:19.401Z,48.43
2023-05-22T07:56:56.260Z,49.20
2023-05-22T07:59:27.561Z,49.68
2023-05-22T08:02:02.286Z,48.42
2023-05-22T08:04:35.630Z,48.96
2023-05-22T08:07:08.395Z,49.42
2023-05-22T08:09:41.089Z,48.74
2023-05-22T08:12:14.032Z,48.93
2023-05-22T08:14:46.524Z,48.91
2023-05-22T08:17:19.246Z,48.30
2023-05-22T08:19:51.582Z,47.49
2023-05-22T08:22:23.875Z,48.78
2023-05-22T08:24:56.033Z,48.03
2023-05-22T08:27:28.169Z,48.61
2023-05-22T08:30:00.620Z,47.90
2023-05-22T08:32:33.286Z,47.90
2023-05-22T08:35:06.180Z,47.60
2023-05-22T08:37:38.541Z,44.32
2023-05-22T08:40:13.916Z,42.66
2023-05-22T08:42:47.971Z,42.22
2023-05-22T08:45:20.870Z,42.61
2023-05-22T08:47:56.293Z,43.62
2023-05-22T08:50:28.705Z,44.17
2023-05-22T08:53:03.428Z,45.37
2023-05-22T08:55:34.499Z,44.99
2023-05-22T08:58:07.478Z,44.87
2023-05-22T09:00:40.544Z,43.88
2023-05-22T09:03:15.289Z,43.88
2023-05-22T09:05:47.524Z,44.49
2023-05-22T09:08:21.247Z,42.22
2023-05-22T09:10:55.157Z,40.93
2023-05-22T09:13:29.811Z,42.03
2023-05-22T09:16:09.248Z,42.51
2023-05-22T09:18:42.522Z,41.53
2023-05-22T09:21:28.667Z,42.59
2023-05-22T09:24:03.939Z,43.06
2023-05-22T09:26:37.181Z,43.34
2023-05-22T09:29:09.947Z,43.54
2023-05-22T09:31:46.598Z,40.05
2023-05-22T09:34:19.256Z,39.11
2023-05-22T09:36:51.663Z,38.47
2023-05-22T09:39:24.059Z,38.87
2023-05-22T09:42:02.821Z,40.95
2023-05-22T09:44:35.501Z,41.75
2023-05-22T09:47:09.851Z,41.41
2023-05-22T09:49:44.672Z,40.95
2023-05-22T09:52:19.329Z,40.76
2023-05-22T09:54:51.387Z,40.44
2023-05-22T09:57:25.619Z,40.40
2023-05-22T09:59:59.236Z,39.94
2023-05-22T10:02:33.711Z,38.66
2023-05-22T10:05:10.236Z,38.80
2023-05-22T10:07:48.622Z,39.62
2023-05-22T10:10:24.398Z,41.60
2023-05-22T10:13:02.424Z,42.30
2023-05-22T10:15:35.878Z,41.20
2023-05-22T10:18:09.013Z,40.71
2023-05-22T10:20:42.322Z,39.44
2023-05-22T10:23:16.343Z,40.36
2023-05-22T10:25:50.042Z,40.41
2023-05-22T10:28:27.200Z,41.16
2023-05-22T10:31:06.249Z,40.82
2023-05-22T10:34:00.205Z,39.06
2023-05-22T10:36:47.623Z,37.46
2023-05-22T10:39:39.008Z,37.21
2023-05-22T10:42:16.444Z,36.54
2023-05-22T10:44:50.085Z,37.27
2023-05-22T10:47:22.724Z,35.14
2023-05-22T10:50:07.825Z,36.55
2023-05-22T10:52:41.087Z,37.50
2023-05-22T10:55:14.410Z,37.17
2023-05-22T10:57:46.935Z,37.71
2023-05-22T11:00:21.249Z,38.61
2023-05-22T11:03:17.064Z,38.77
2023-05-22T11:05:56.220Z,39.55
2023-05-22T11:08:41.237Z,37.35
2023-05-22T11:11:15.195Z,36.25
2023-05-22T11:13:54.383Z,37.62
2023-05-22T11:16:26.858Z,37.26
2023-05-22T11:19:21.824Z,37.45
2023-05-22T11:22:01.293Z,36.87
2023-05-22T11:24:38.607Z,36.36
2023-05-22T11:27:12.107Z,34.59
2023-05-22T11:29:46.425Z,36.15
2023-05-22T11:32:21.002Z,36.56
2023-05-22T11:34:51.731Z,37.03
2023-05-22T11:37:24.354Z,36.82
2023-05-22T11:39:59.636Z,35.20
2023-05-22T11:42:31.986Z,37.18
2023-05-22T11:45:05.102Z,35.86
2023-05-22T11:47:37.884Z,36.17
2023-05-22T11:50:15.049Z,36.28
2023-05-22T11:52:50.924Z,34.96
2023-05-22T11:55:24.112Z,34.78
2023-05-22T11:57:57.745Z,33.95
2023-05-22T12:00:31.799Z,33.07
2023-05-22T12:03:04.271Z,34.04
2023-05-22T12:05:36.766Z,35.75
2023-05-22T12:08:09.181Z,34.08
2023-05-22T12:10:47.376Z,34.16
2023-05-22T12:13:25.499Z,33.40
2023-05-22T12:16:01.356Z,34.51
2023-05-22T12:18:39.784Z,34.22
2023-05-22T12:21:13.268Z,33.59
2023-05-22T12:23:52.586Z,34.27
2023-05-22T12:26:24.905Z,34.91
2023-05-22T12:28:58.456Z,34.52
2023-05-22T12:31:35.998Z,34.22
2023-05-22T12:34:09.523Z,34.56
2023-05-22T12:36:44.303Z,36.05
2023-05-22T12:39:17.661Z,35.76
2023-05-22T12:41:50.109Z,35.29
2023-05-22T12:44:22.430Z,35.30
2023-05-22T12:46:55.063Z,35.36
2023-05-22T12:49:27.402Z,37.34
2023-05-22T12:51:59.836Z,36.78
2023-05-22T12:54:32.081Z,36.61
2023-05-22T12:57:04.505Z,35.48
2023-05-22T12:59:37.392Z,36.51
2023-05-22T13:02:10.882Z,36.22
2023-05-22T13:04:43.287Z,35.25
2023-05-22T13:07:16.133Z,33.67
2023-05-22T13:09:48.224Z,35.21
2023-05-22T13:12:20.630Z,35.55
2023-05-22T13:14:53.019Z,35.38
2023-05-22T13:17:25.476Z,33.82
2023-05-22T13:19:59.010Z,33.80
2023-05-22T13:22:31.950Z,34.27
2023-05-22T13:25:04.915Z,32.19
2023-05-22T13:27:37.277Z,31.17
2023-05-22T13:30:11.082Z,31.89
2023-05-22T13:32:43.627Z,33.45
2023-05-22T13:35:16.325Z,31.31
2023-05-22T13:37:48.574Z,32.15
2023-05-22T13:40:21.050Z,32.08
2023-05-22T13:42:54.086Z,31.84
2023-05-22T13:45:27.297Z,33.72
2023-05-22T13:47:59.813Z,34.53
2023-05-22T13:50:32.417Z,34.58
2023-05-22T13:53:18.355Z,34.01
2023-05-22T13:55:56.457Z,31.72
2023-05-22T13:58:28.569Z,31.20
2023-05-22T14:01:00.717Z,31.73
2023-05-22T14:03:32.842Z,31.10
2023-05-22T14:06:05.202Z,32.12
2023-05-22T14:08:37.480Z,33.81
2023-05-22T14:11:09.676Z,33.22
2023-05-22T14:13:41.934Z,33.04
2023-05-22T14:16:14.350Z,33.76
2023-05-22T14:18:46.875Z,33.13
2023-05-22T14:21:20.230Z,32.25
2023-05-22T14:23:52.739Z,33.96
2023-05-22T14:26:25.483Z,34.29
2023-05-22T14:28:58.033Z,34.03
2023-05-22T14:31:31.440Z,34.13
2023-05-22T14:34:04.124Z,33.27
2023-05-22T14:36:36.374Z,31.39
2023-05-22T14:39:08.895Z,31.15
2023-05-22T14:41:41.911Z,31.09
2023-05-22T14:44:14.126Z,29.62
2023-05-22T14:46:46.817Z,31.08
2023-05-22T14:49:19.094Z,30.73
2023-05-22T14:51:51.813Z,29.33
2023-05-22T14:54:24.145Z,29.27
2023-05-22T14:56:56.606Z,30.93
2023-05-22T14:59:29.030Z,31.41
2023-05-22T15:02:01.552Z,31.86
2023-05-22T15:04:33.875Z,29.46
2023-05-22T15:07:08.707Z,30.74
2023-05-22T15:09:41.522Z,31.19
2023-05-22T15:12:13.799Z,34.45
2023-05-22T15:14:46.038Z,33.68
2023-05-22T15:17:18.771Z,31.60
2023-05-22T15:19:50.909Z,31.47
2023-05-22T15:22:23.961Z,32.59
2023-05-22T15:25:07.455Z,32.91
2023-05-22T15:27:41.565Z,33.99
2023-05-22T15:30:16.120Z,33.38
2023-05-22T15:32:48.450Z,33.73
2023-05-22T15:35:20.798Z,33.63
2023-05-22T15:37:53.239Z,33.37
2023-05-22T15:40:25.783Z,34.29
2023-05-22T15:42:58.085Z,35.17
2023-05-22T15:45:30.668Z,34.66
2023-05-22T15:48:04.912Z,34.14
2023-05-22T15:50:37.477Z,34.87
2023-05-22T15:53:09.981Z,35.50
2023-05-22T15:55:42.623Z,36.61
2023-05-22T15:58:14.969Z,36.49
2023-05-22T16:00:47.402Z,37.18
2023-05-22T16:03:19.608Z,34.06
2023-05-22T16:05:51.904Z,33.64
2023-05-22T16:08:24.066Z,36.61
2023-05-22T16:11:00.808Z,36.54
2023-05-22T16:13:33.662Z,34.86
2023-05-22T16:16:06.202Z,34.58
2023-05-22T16:18:38.638Z,33.93
2023-05-22T16:21:11.066Z,34.89
2023-05-22T16:23:43.434Z,34.52
2023-05-22T16:26:16.287Z,34.25
2023-05-22T16:28:48.573Z,32.50
2023-05-22T16:31:20.917Z,34.09
2023-05-22T16:33:54.068Z,34.64
2023-05-22T16:36:27.264Z,34.99
2023-05-22T16:38:59.755Z,35.13
2023-05-22T16:41:32.324Z,35.18
2023-05-22T16:44:04.518Z,35.26
2023-05-22T16:46:36.857Z,35.34
2023-05-22T16:49:08.966Z,35.42
2023-05-22T16:51:41.312Z,35.95
2023-05-22T16:54:13.936Z,36.17
2023-05-22T16:56:46.856Z,36.33
2023-05-22T16:59:20.021Z,36.54
2023-05-22T17:01:52.629Z,36.32
2023-05-22T17:04:24.820Z,37.34
2023-05-22T17:06:57.950Z,36.73
2023-05-22T17:09:30.165Z,37.27
2023-05-22T17:12:03.172Z,36.88
2023-05-22T17:14:35.482Z,37.57
2023-05-22T17:17:08.308Z,38.07
2023-05-22T17:19:40.908Z,37.35
2023-05-22T17:22:13.238Z,37.22
2023-05-22T17:24:46.097Z,37.00
2023-05-22T17:27:31.984Z,37.41
2023-05-22T17:30:09.058Z,36.64
2023-05-22T17:32:41.455Z,37.06
2023-05-22T17:35:13.747Z,38.01
2023-05-22T17:37:46.185Z,38.16
2023-05-22T17:40:18.778Z,38.56
2023-05-22T17:42:51.150Z,38.00
2023-05-22T17:45:23.500Z,38.07
2023-05-22T17:47:55.822Z,37.65
2023-05-22T17:50:28.228Z,37.90
2023-05-22T17:53:00.548Z,38.35
2023-05-22T17:55:32.914Z,38.49
2023-05-22T17:58:05.653Z,38.34
2023-05-22T18:00:38.147Z,38.09
2023-05-22T18:03:10.439Z,38.37
2023-05-22T18:05:43.569Z,37.85
2023-05-22T18:08:15.950Z,37.68
2023-05-22T18:10:48.228Z,38.31
2023-05-22T18:13:20.842Z,38.48
2023-05-22T18:15:53.176Z,38.60
2023-05-22T18:18:25.578Z,38.67
2023-05-22T18:20:58.099Z,38.27
2023-05-22T18:23:30.490Z,38.71
2023-05-22T18:26:03.679Z,38.81
2023-05-22T18:28:36.293Z,39.18
2023-05-22T18:31:08.687Z,39.40
2023-05-22T18:33:44.839Z,39.88
2023-05-22T18:36:17.668Z,39.73
2023-05-22T18:38:50.099Z,40.02
2023-05-22T18:41:22.415Z,40.30
2023-05-22T18:43:54.647Z,40.65
2023-05-22T18:46:27.037Z,40.54
2023-05-22T18:48:59.539Z,40.91
2023-05-22T18:51:31.805Z,41.03
2023-05-22T18:54:04.109Z,41.57
2023-05-22T18:56:36.847Z,41.72
2023-05-22T18:59:09.672Z,41.69
2023-05-22T19:01:42.333Z,41.87
2023-05-22T19:04:14.814Z,42.36
2023-05-22T19:06:47.070Z,42.57
2023-05-22T19:09:19.521Z,42.93
2023-05-22T19:11:51.665Z,43.05
2023-05-22T19:14:23.906Z,43.01
2023-05-22T19:16:56.261Z,43.63
2023-05-22T19:19:28.610Z,44.25
2023-05-22T19:22:01.217Z,44.51
2023-05-22T19:24:33.821Z,45.11
2023-05-22T19:27:07.029Z,45.17
2023-05-22T19:29:39.719Z,45.48
2023-05-22T19:32:11.935Z,45.72
2023-05-22T19:34:44.558Z,45.58
2023-05-22T19:37:16.908Z,45.80
2023-05-22T19:39:49.028Z,45.71
2023-05-22T19:42:21.436Z,45.54
2023-05-22T19:44:53.768Z,45.67
2023-05-22T19:47:26.221Z,45.91
2023-05-22T19:49:58.678Z,46.42
2023-05-22T19:52:30.852Z,46.76
2023-05-22T19:55:03.201Z,46.71
2023-05-22T19:57:35.688Z,47.17
2023-05-22T20:00:11.056Z,47.13
2023-05-22T20:02:43.647Z,47.41
2023-05-22T20:05:16.231Z,47.65
2023-05-22T20:07:48.782Z,47.87
2023-05-22T20:10:22.137Z,47.76
2023-05-22T20:12:55.528Z,47.56
2023-05-22T20:15:28.147Z,48.11
2023-05-22T20:18:02.706Z,48.30
2023-05-22T20:20:35.264Z,48.39
2023-05-22T20:23:07.617Z,48.32
2023-05-22T20:25:40.014Z,48.62
2023-05-22T20:28:12.684Z,48.91
2023-05-22T20:30:45.975Z,48.96
2023-05-22T20:33:18.771Z,48.55
2023-05-22T20:35:53.346Z,48.69
2023-05-22T20:38:26.027Z,48.47
2023-05-22T20:40:59.733Z,48.92
2023-05-22T20:43:32.206Z,48.86
2023-05-22T20:46:04.403Z,49.14
2023-05-22T20:48:36.784Z,49.11
2023-05-22T20:51:10.228Z,49.07
2023-05-22T20:53:43.006Z,49.13
2023-05-22T20:56:15.220Z,49.36
2023-05-22T20:58:47.574Z,49.86
2023-05-22T21:01:20.296Z,49.83
2023-05-22T21:03:52.764Z,49.83
2023-05-22T21:06:25.307Z,49.86
2023-05-22T21:09:01.665Z,50.34
2023-05-22T21:11:34.192Z,50.51
2023-05-22T21:14:06.580Z,50.28
2023-05-22T21:16:40.230Z,50.25
2023-05-22T21:19:12.692Z,50.30
2023-05-22T21:21:44.808Z,50.47
2023-05-22T21:24:16.991Z,50.59
2023-05-22T21:26:49.442Z,50.62
2023-05-22T21:29:21.872Z,50.98
2023-05-22T21:31:54.434Z,50.69
2023-05-22T21:34:27.155Z,51.00
2023-05-22T21:36:59.511Z,51.07
2023-05-22T21:39:31.917Z,51.56
2023-05-22T21:42:06.138Z,51.53
2023-05-22T21:44:38.649Z,51.79
2023-05-22T21:47:10.787Z,51.54
2023-05-22T21:49:43.334Z,51.74
2023-05-22T21:52:16.310Z,51.86
2023-05-22T21:54:48.542Z,51.79
2023-05-22T21:57:20.805Z,52.06
2023-05-22T21:59:53.148Z,51.85
2023-05-22T22:02:25.680Z,52.26
2023-05-22T22:04:57.817Z,52.33
2023-05-22T22:07:29.900Z,52.52
2023-05-22T22:10:02.695Z,52.37
2023-05-22T22:12:34.810Z,52.32
2023-05-22T22:15:08.490Z,52.36
2023-05-22T22:17:41.747Z,52.62
2023-05-22T22:20:14.546Z,52.46
2023-05-22T22:22:46.858Z,52.71
2023-05-22T22:25:19.177Z,52.70
2023-05-22T22:27:51.580Z,52.76
2023-05-22T22:30:23.969Z,53.13
2023-05-22T22:32:56.520Z,53.17
2023-05-22T22:35:28.914Z,53.05
2023-05-22T22:38:01.243Z,53.14
2023-05-22T22:40:33.582Z,53.25
2023-05-22T22:43:05.802Z,53.23
2023-05-22T22:45:40.147Z,53.31
2023-05-22T22:48:12.842Z,53.48
2023-05-22T22:50:46.939Z,53.53
2023-05-22T22:53:19.328Z,53.72
2023-05-22T22:55:55.334Z,53.63
2023-05-22T22:58:27.522Z,53.42
2023-05-22T23:00:59.863Z,53.63
2023-05-22T23:03:32.557Z,53.61
2023-05-22T23:06:05.000Z,53.72
2023-05-22T23:08:37.530Z,53.54
2023-05-22T23:11:09.901Z,53.57
2023-05-22T23:13:43.558Z,53.97
2023-05-22T23:16:16.407Z,53.91
2023-05-22T23:18:48.894Z,53.85
2023-05-22T23:21:21.491Z,54.15
2023-05-22T23:23:53.794Z,54.08
2023-05-22T23:26:26.254Z,54.09
2023-05-22T23:28:59.544Z,54.44
2023-05-22T23:31:32.050Z,54.38
2023-05-22T23:34:04.589Z,53.91
2023-05-22T23:36:37.241Z,53.89
2023-05-22T23:39:09.427Z,53.96
2023-05-22T23:41:42.316Z,54.25
2023-05-22T23:44:14.738Z,54.26
2023-05-22T23:46:47.728Z,53.99
2023-05-22T23:49:19.912Z,54.39
2023-05-22T23:51:52.179Z,53.96
2023-05-22T23:54:24.462Z,54.14
2023-05-22T23:56:56.655Z,54.16
2023-05-22T23:59:28.786Z,54.19
